sensor_id;sensor_type;location;lat;lon;timestamp;P1;durP1;ratioP1;P2;durP2;ratioP2
1400;SDS011;46518;48.842;8.926;2022-07-11T00:01:34;2.50;;;2.30;;
1400;SDS011;46518;48.842;8.926;2022-07-11T00:04:08;3.90;;;3.60;;
1400;SDS011;46518;48.842;8.926;2022-07-11T00:06:37;3.47;;;3.28;;
1400;SDS011;46518;48.842;8.926;2022-07-11T00:09:06;3.63;;;3.25;;
1400;SDS011;46518;48.842;8.926;2022-07-11T00:11:35;3.30;;;3.10;;
1400;SDS011;46518;48.842;8.926;2022-07-11T00:14:03;2.72;;;2.53;;
1400;SDS011;46518;48.842;8.926;2022-07-11T00:16:32;2.83;;;2.60;;
1400;SDS011;46518;48.842;8.926;2022-07-11T00:19:01;3.50;;;3.20;;
1400;SDS011;46518;48.842;8.926;2022-07-11T00:21:29;3.72;;;3.47;;
1400;SDS011;46518;48.842;8.926;2022-07-11T00:24:17;3.28;;;2.97;;
1400;SDS011;46518;48.842;8.926;2022-07-11T00:26:48;4.10;;;2.90;;
1400;SDS011;46518;48.842;8.926;2022-07-11T00:29:17;3.13;;;2.92;;
1400;SDS011;46518;48.842;8.926;2022-07-11T00:31:45;2.83;;;2.63;;
1400;SDS011;46518;48.842;8.926;2022-07-11T00:34:13;3.55;;;3.25;;
1400;SDS011;46518;48.842;8.926;2022-07-11T00:36:44;2.72;;;2.53;;
1400;SDS011;46518;48.842;8.926;2022-07-11T00:39:12;3.67;;;3.33;;
1400;SDS011;46518;48.842;8.926;2022-07-11T00:41:40;2.70;;;2.60;;
1400;SDS011;46518;48.842;8.926;2022-07-11T00:44:12;3.45;;;2.72;;
1400;SDS011;46518;48.842;8.926;2022-07-11T00:46:41;3.17;;;2.90;;
1400;SDS011;46518;48.842;8.926;2022-07-11T00:49:09;3.58;;;3.38;;
1400;SDS011;46518;48.842;8.926;2022-07-11T00:51:37;3.15;;;2.95;;
1400;SDS011;46518;48.842;8.926;2022-07-11T00:54:06;4.22;;;3.85;;
1400;SDS011;46518;48.842;8.926;2022-07-11T00:56:35;3.88;;;3.33;;
1400;SDS011;46518;48.842;8.926;2022-07-11T00:59:03;4.00;;;3.17;;
1400;SDS011;46518;48.842;8.926;2022-07-11T01:01:33;3.60;;;3.30;;
1400;SDS011;46518;48.842;8.926;2022-07-11T01:04:05;3.20;;;2.90;;
1400;SDS011;46518;48.842;8.926;2022-07-11T01:06:33;3.92;;;3.53;;
1400;SDS011;46518;48.842;8.926;2022-07-11T01:09:01;4.45;;;3.42;;
1400;SDS011;46518;48.842;8.926;2022-07-11T01:11:29;4.22;;;3.72;;
1400;SDS011;46518;48.842;8.926;2022-07-11T01:13:58;4.25;;;3.85;;
1400;SDS011;46518;48.842;8.926;2022-07-11T01:16:26;3.90;;;3.58;;
1400;SDS011;46518;48.842;8.926;2022-07-11T01:18:55;4.80;;;4.45;;
1400;SDS011;46518;48.842;8.926;2022-07-11T01:21:24;4.30;;;3.65;;
1400;SDS011;46518;48.842;8.926;2022-07-11T01:23:56;5.30;;;4.13;;
1400;SDS011;46518;48.842;8.926;2022-07-11T01:26:25;4.25;;;3.65;;
1400;SDS011;46518;48.842;8.926;2022-07-11T01:28:54;5.50;;;4.70;;
1400;SDS011;46518;48.842;8.926;2022-07-11T01:31:31;4.32;;;3.92;;
1400;SDS011;46518;48.842;8.926;2022-07-11T01:34:00;5.00;;;4.60;;
1400;SDS011;46518;48.842;8.926;2022-07-11T01:36:28;5.00;;;4.50;;
1400;SDS011;46518;48.842;8.926;2022-07-11T01:38:58;5.05;;;4.55;;
1400;SDS011;46518;48.842;8.926;2022-07-11T01:41:26;5.47;;;4.20;;
1400;SDS011;46518;48.842;8.926;2022-07-11T01:43:54;4.82;;;4.35;;
1400;SDS011;46518;48.842;8.926;2022-07-11T01:46:22;4.38;;;3.97;;
1400;SDS011;46518;48.842;8.926;2022-07-11T01:48:59;5.00;;;4.60;;
1400;SDS011;46518;48.842;8.926;2022-07-11T01:51:28;6.00;;;5.05;;
1400;SDS011;46518;48.842;8.926;2022-07-11T01:53:58;4.50;;;4.20;;
1400;SDS011;46518;48.842;8.926;2022-07-11T01:56:26;5.93;;;5.20;;
1400;SDS011;46518;48.842;8.926;2022-07-11T01:58:58;6.00;;;5.50;;
1400;SDS011;46518;48.842;8.926;2022-07-11T02:01:27;5.93;;;5.43;;
1400;SDS011;46518;48.842;8.926;2022-07-11T02:03:56;5.95;;;5.40;;
1400;SDS011;46518;48.842;8.926;2022-07-11T02:06:24;4.75;;;4.40;;
1400;SDS011;46518;48.842;8.926;2022-07-11T02:08:53;5.85;;;5.35;;
1400;SDS011;46518;48.842;8.926;2022-07-11T02:11:22;5.75;;;4.97;;
1400;SDS011;46518;48.842;8.926;2022-07-11T02:13:51;6.00;;;5.32;;
1400;SDS011;46518;48.842;8.926;2022-07-11T02:16:19;6.32;;;5.68;;
1400;SDS011;46518;48.842;8.926;2022-07-11T02:18:48;6.57;;;5.93;;
1400;SDS011;46518;48.842;8.926;2022-07-11T02:21:17;6.65;;;6.15;;
1400;SDS011;46518;48.842;8.926;2022-07-11T02:23:45;6.18;;;5.57;;
1400;SDS011;46518;48.842;8.926;2022-07-11T02:26:14;6.13;;;5.63;;
1400;SDS011;46518;48.842;8.926;2022-07-11T02:28:43;5.70;;;5.05;;
1400;SDS011;46518;48.842;8.926;2022-07-11T02:31:12;6.55;;;6.05;;
1400;SDS011;46518;48.842;8.926;2022-07-11T02:33:40;6.82;;;6.32;;
1400;SDS011;46518;48.842;8.926;2022-07-11T02:36:10;6.50;;;5.75;;
1400;SDS011;46518;48.842;8.926;2022-07-11T02:38:38;6.15;;;5.55;;
1400;SDS011;46518;48.842;8.926;2022-07-11T02:41:06;4.88;;;4.55;;
1400;SDS011;46518;48.842;8.926;2022-07-11T02:43:34;5.97;;;5.47;;
1400;SDS011;46518;48.842;8.926;2022-07-11T02:46:10;6.60;;;6.00;;
1400;SDS011;46518;48.842;8.926;2022-07-11T02:48:38;4.90;;;4.60;;
1400;SDS011;46518;48.842;8.926;2022-07-11T02:51:06;4.65;;;4.35;;
1400;SDS011;46518;48.842;8.926;2022-07-11T02:53:35;7.50;;;6.80;;
1400;SDS011;46518;48.842;8.926;2022-07-11T02:56:03;5.88;;;5.38;;
1400;SDS011;46518;48.842;8.926;2022-07-11T02:58:32;5.30;;;4.90;;
1400;SDS011;46518;48.842;8.926;2022-07-11T03:01:01;7.68;;;6.32;;
1400;SDS011;46518;48.842;8.926;2022-07-11T03:03:30;6.43;;;5.88;;
1400;SDS011;46518;48.842;8.926;2022-07-11T03:05:58;5.53;;;5.10;;
1400;SDS011;46518;48.842;8.926;2022-07-11T03:08:26;7.13;;;6.30;;
1400;SDS011;46518;48.842;8.926;2022-07-11T03:10:55;5.85;;;5.35;;
1400;SDS011;46518;48.842;8.926;2022-07-11T03:13:30;5.30;;;4.90;;
1400;SDS011;46518;48.842;8.926;2022-07-11T03:15:58;5.53;;;5.07;;
1400;SDS011;46518;48.842;8.926;2022-07-11T03:18:27;6.40;;;5.90;;
1400;SDS011;46518;48.842;8.926;2022-07-11T03:20:56;6.60;;;6.03;;
1400;SDS011;46518;48.842;8.926;2022-07-11T03:23:25;6.93;;;6.32;;
1400;SDS011;46518;48.842;8.926;2022-07-11T03:25:53;7.57;;;6.88;;
1400;SDS011;46518;48.842;8.926;2022-07-11T03:28:21;6.97;;;6.32;;
1400;SDS011;46518;48.842;8.926;2022-07-11T03:30:49;6.38;;;5.85;;
1400;SDS011;46518;48.842;8.926;2022-07-11T03:33:17;7.95;;;7.25;;
1400;SDS011;46518;48.842;8.926;2022-07-11T03:35:45;6.47;;;5.97;;
1400;SDS011;46518;48.842;8.926;2022-07-11T03:38:17;7.38;;;6.78;;
1400;SDS011;46518;48.842;8.926;2022-07-11T03:40:46;6.32;;;5.70;;
1400;SDS011;46518;48.842;8.926;2022-07-11T03:43:15;6.65;;;6.00;;
1400;SDS011;46518;48.842;8.926;2022-07-11T03:45:43;6.85;;;6.18;;
1400;SDS011;46518;48.842;8.926;2022-07-11T03:48:11;6.45;;;5.82;;
1400;SDS011;46518;48.842;8.926;2022-07-11T03:50:40;6.00;;;5.50;;
1400;SDS011;46518;48.842;8.926;2022-07-11T03:53:08;6.05;;;5.55;;
1400;SDS011;46518;48.842;8.926;2022-07-11T03:55:38;6.50;;;5.13;;
1400;SDS011;46518;48.842;8.926;2022-07-11T03:58:12;5.55;;;5.15;;
1400;SDS011;46518;48.842;8.926;2022-07-11T04:00:40;6.10;;;5.60;;
1400;SDS011;46518;48.842;8.926;2022-07-11T04:03:09;6.53;;;5.95;;
1400;SDS011;46518;48.842;8.926;2022-07-11T04:05:37;5.38;;;4.95;;
1400;SDS011;46518;48.842;8.926;2022-07-11T04:08:05;5.72;;;5.22;;
1400;SDS011;46518;48.842;8.926;2022-07-11T04:10:33;5.97;;;5.47;;
1400;SDS011;46518;48.842;8.926;2022-07-11T04:13:03;5.60;;;5.00;;
1400;SDS011;46518;48.842;8.926;2022-07-11T04:15:32;5.60;;;5.20;;
1400;SDS011;46518;48.842;8.926;2022-07-11T04:18:00;6.22;;;5.60;;
1400;SDS011;46518;48.842;8.926;2022-07-11T04:20:30;5.90;;;5.28;;
1400;SDS011;46518;48.842;8.926;2022-07-11T04:22:58;5.65;;;5.25;;
1400;SDS011;46518;48.842;8.926;2022-07-11T04:25:26;6.03;;;5.38;;
1400;SDS011;46518;48.842;8.926;2022-07-11T04:27:54;6.50;;;5.97;;
1400;SDS011;46518;48.842;8.926;2022-07-11T04:30:23;6.95;;;6.30;;
1400;SDS011;46518;48.842;8.926;2022-07-11T04:32:51;7.55;;;5.72;;
1400;SDS011;46518;48.842;8.926;2022-07-11T04:35:20;6.20;;;5.70;;
1400;SDS011;46518;48.842;8.926;2022-07-11T04:37:49;6.28;;;5.78;;
1400;SDS011;46518;48.842;8.926;2022-07-11T04:40:18;5.90;;;5.40;;
1400;SDS011;46518;48.842;8.926;2022-07-11T04:42:47;6.20;;;5.70;;
1400;SDS011;46518;48.842;8.926;2022-07-11T04:45:15;7.18;;;6.57;;
1400;SDS011;46518;48.842;8.926;2022-07-11T04:47:45;6.50;;;5.88;;
1400;SDS011;46518;48.842;8.926;2022-07-11T04:50:13;6.32;;;5.72;;
1400;SDS011;46518;48.842;8.926;2022-07-11T04:52:41;5.55;;;4.93;;
1400;SDS011;46518;48.842;8.926;2022-07-11T04:55:10;5.78;;;5.25;;
1400;SDS011;46518;48.842;8.926;2022-07-11T04:57:38;6.30;;;5.70;;
1400;SDS011;46518;48.842;8.926;2022-07-11T05:00:07;8.00;;;7.30;;
1400;SDS011;46518;48.842;8.926;2022-07-11T05:02:35;7.10;;;6.45;;
1400;SDS011;46518;48.842;8.926;2022-07-11T05:05:05;8.07;;;5.75;;
1400;SDS011;46518;48.842;8.926;2022-07-11T05:07:34;6.50;;;6.00;;
1400;SDS011;46518;48.842;8.926;2022-07-11T05:10:03;7.03;;;6.43;;
1400;SDS011;46518;48.842;8.926;2022-07-11T05:12:32;7.05;;;6.40;;
1400;SDS011;46518;48.842;8.926;2022-07-11T05:15:00;7.25;;;6.55;;
1400;SDS011;46518;48.842;8.926;2022-07-11T05:17:28;6.40;;;5.90;;
1400;SDS011;46518;48.842;8.926;2022-07-11T05:19:57;6.03;;;5.20;;
1400;SDS011;46518;48.842;8.926;2022-07-11T05:22:26;6.03;;;5.53;;
1400;SDS011;46518;48.842;8.926;2022-07-11T05:24:54;5.95;;;5.45;;
1400;SDS011;46518;48.842;8.926;2022-07-11T05:27:23;5.85;;;5.32;;
1400;SDS011;46518;48.842;8.926;2022-07-11T05:29:51;6.45;;;5.85;;
1400;SDS011;46518;48.842;8.926;2022-07-11T05:32:19;4.70;;;4.35;;
1400;SDS011;46518;48.842;8.926;2022-07-11T05:34:47;5.35;;;4.85;;
1400;SDS011;46518;48.842;8.926;2022-07-11T05:37:15;4.53;;;4.13;;
1400;SDS011;46518;48.842;8.926;2022-07-11T05:39:45;6.53;;;4.35;;
1400;SDS011;46518;48.842;8.926;2022-07-11T05:42:13;5.78;;;5.38;;
1400;SDS011;46518;48.842;8.926;2022-07-11T05:44:42;5.70;;;5.13;;
1400;SDS011;46518;48.842;8.926;2022-07-11T05:47:10;4.95;;;4.30;;
1400;SDS011;46518;48.842;8.926;2022-07-11T05:49:38;6.38;;;5.78;;
1400;SDS011;46518;48.842;8.926;2022-07-11T05:52:07;4.80;;;4.43;;
1400;SDS011;46518;48.842;8.926;2022-07-11T05:54:36;5.57;;;4.90;;
1400;SDS011;46518;48.842;8.926;2022-07-11T05:57:05;5.20;;;4.80;;
1400;SDS011;46518;48.842;8.926;2022-07-11T05:59:33;4.20;;;3.90;;
1400;SDS011;46518;48.842;8.926;2022-07-11T06:02:04;5.20;;;4.80;;
1400;SDS011;46518;48.842;8.926;2022-07-11T06:04:34;5.15;;;4.65;;
1400;SDS011;46518;48.842;8.926;2022-07-11T06:07:03;5.40;;;4.90;;
1400;SDS011;46518;48.842;8.926;2022-07-11T06:09:32;5.80;;;5.30;;
1400;SDS011;46518;48.842;8.926;2022-07-11T06:11:59;5.68;;;5.28;;
1400;SDS011;46518;48.842;8.926;2022-07-11T06:14:29;5.22;;;4.82;;
1400;SDS011;46518;48.842;8.926;2022-07-11T06:16:57;5.32;;;4.93;;
1400;SDS011;46518;48.842;8.926;2022-07-11T06:19:26;4.10;;;3.70;;
1400;SDS011;46518;48.842;8.926;2022-07-11T06:21:55;4.70;;;4.40;;
1400;SDS011;46518;48.842;8.926;2022-07-11T06:24:23;3.92;;;3.63;;
1400;SDS011;46518;48.842;8.926;2022-07-11T06:26:51;4.13;;;3.60;;
1400;SDS011;46518;48.842;8.926;2022-07-11T06:29:22;4.28;;;3.88;;
1400;SDS011;46518;48.842;8.926;2022-07-11T06:31:51;4.30;;;3.90;;
1400;SDS011;46518;48.842;8.926;2022-07-11T06:34:20;4.72;;;4.30;;
1400;SDS011;46518;48.842;8.926;2022-07-11T06:36:48;4.10;;;3.80;;
1400;SDS011;46518;48.842;8.926;2022-07-11T06:39:17;5.13;;;4.72;;
1400;SDS011;46518;48.842;8.926;2022-07-11T06:41:45;5.65;;;4.40;;
1400;SDS011;46518;48.842;8.926;2022-07-11T06:44:13;4.20;;;3.90;;
1400;SDS011;46518;48.842;8.926;2022-07-11T06:46:41;5.20;;;4.70;;
1400;SDS011;46518;48.842;8.926;2022-07-11T06:49:12;6.15;;;4.57;;
1400;SDS011;46518;48.842;8.926;2022-07-11T06:51:40;4.95;;;4.63;;
1400;SDS011;46518;48.842;8.926;2022-07-11T06:54:08;4.35;;;4.05;;
1400;SDS011;46518;48.842;8.926;2022-07-11T06:56:37;3.55;;;3.25;;
1400;SDS011;46518;48.842;8.926;2022-07-11T06:59:05;3.47;;;3.17;;
1400;SDS011;46518;48.842;8.926;2022-07-11T07:01:33;3.42;;;3.22;;
1400;SDS011;46518;48.842;8.926;2022-07-11T07:04:01;3.00;;;2.80;;
1400;SDS011;46518;48.842;8.926;2022-07-11T07:06:31;2.45;;;2.35;;
1400;SDS011;46518;48.842;8.926;2022-07-11T07:08:59;2.80;;;2.60;;
1400;SDS011;46518;48.842;8.926;2022-07-11T07:11:29;2.90;;;2.70;;
1400;SDS011;46518;48.842;8.926;2022-07-11T07:13:57;2.42;;;2.22;;
1400;SDS011;46518;48.842;8.926;2022-07-11T07:16:26;2.50;;;2.40;;
1400;SDS011;46518;48.842;8.926;2022-07-11T07:18:54;3.25;;;2.95;;
1400;SDS011;46518;48.842;8.926;2022-07-11T07:21:23;3.33;;;2.42;;
1400;SDS011;46518;48.842;8.926;2022-07-11T07:23:53;2.78;;;2.58;;
1400;SDS011;46518;48.842;8.926;2022-07-11T07:26:22;3.17;;;2.97;;
1400;SDS011;46518;48.842;8.926;2022-07-11T07:28:50;3.00;;;2.70;;
1400;SDS011;46518;48.842;8.926;2022-07-11T07:31:18;3.80;;;3.50;;
1400;SDS011;46518;48.842;8.926;2022-07-11T07:33:47;3.05;;;2.85;;
1400;SDS011;46518;48.842;8.926;2022-07-11T07:36:15;2.55;;;2.42;;
1400;SDS011;46518;48.842;8.926;2022-07-11T07:38:44;2.80;;;2.60;;
1400;SDS011;46518;48.842;8.926;2022-07-11T07:41:15;3.17;;;2.88;;
1400;SDS011;46518;48.842;8.926;2022-07-11T07:43:43;2.80;;;2.60;;
1400;SDS011;46518;48.842;8.926;2022-07-11T07:46:12;1.92;;;1.83;;
1400;SDS011;46518;48.842;8.926;2022-07-11T07:48:41;2.20;;;2.10;;
1400;SDS011;46518;48.842;8.926;2022-07-11T07:51:09;3.50;;;2.38;;
1400;SDS011;46518;48.842;8.926;2022-07-11T07:53:38;2.00;;;1.90;;
1400;SDS011;46518;48.842;8.926;2022-07-11T07:56:06;2.42;;;2.33;;
1400;SDS011;46518;48.842;8.926;2022-07-11T07:58:36;2.38;;;2.17;;
1400;SDS011;46518;48.842;8.926;2022-07-11T08:01:05;2.78;;;2.38;;
1400;SDS011;46518;48.842;8.926;2022-07-11T08:03:51;2.35;;;2.20;;
1400;SDS011;46518;48.842;8.926;2022-07-11T08:06:20;1.98;;;1.88;;
1400;SDS011;46518;48.842;8.926;2022-07-11T08:08:48;1.75;;;1.65;;
1400;SDS011;46518;48.842;8.926;2022-07-11T08:11:17;1.77;;;1.67;;
1400;SDS011;46518;48.842;8.926;2022-07-11T08:14:02;1.42;;;1.33;;
1400;SDS011;46518;48.842;8.926;2022-07-11T08:16:31;2.03;;;1.92;;
1400;SDS011;46518;48.842;8.926;2022-07-11T08:19:00;1.70;;;1.60;;
1400;SDS011;46518;48.842;8.926;2022-07-11T08:21:30;1.60;;;1.50;;
1400;SDS011;46518;48.842;8.926;2022-07-11T08:24:00;1.48;;;1.38;;
1400;SDS011;46518;48.842;8.926;2022-07-11T08:26:29;1.60;;;1.50;;
1400;SDS011;46518;48.842;8.926;2022-07-11T08:29:00;1.40;;;1.30;;
1400;SDS011;46518;48.842;8.926;2022-07-11T08:31:30;1.65;;;1.45;;
1400;SDS011;46518;48.842;8.926;2022-07-11T08:34:00;2.08;;;1.90;;
1400;SDS011;46518;48.842;8.926;2022-07-11T08:36:29;1.85;;;1.60;;
1400;SDS011;46518;48.842;8.926;2022-07-11T08:39:02;1.50;;;1.40;;
1400;SDS011;46518;48.842;8.926;2022-07-11T08:41:31;1.90;;;1.75;;
1400;SDS011;46518;48.842;8.926;2022-07-11T08:43:59;1.67;;;1.58;;
1400;SDS011;46518;48.842;8.926;2022-07-11T08:46:30;1.73;;;1.63;;
1400;SDS011;46518;48.842;8.926;2022-07-11T08:49:00;1.30;;;1.20;;
1400;SDS011;46518;48.842;8.926;2022-07-11T08:51:30;1.60;;;1.50;;
1400;SDS011;46518;48.842;8.926;2022-07-11T08:54:01;1.45;;;1.35;;
1400;SDS011;46518;48.842;8.926;2022-07-11T08:56:30;2.43;;;2.23;;
1400;SDS011;46518;48.842;8.926;2022-07-11T08:58:59;2.00;;;1.90;;
1400;SDS011;46518;48.842;8.926;2022-07-11T09:01:28;1.90;;;1.80;;
1400;SDS011;46518;48.842;8.926;2022-07-11T09:03:59;1.80;;;1.70;;
1400;SDS011;46518;48.842;8.926;2022-07-11T09:06:29;1.70;;;1.60;;
1400;SDS011;46518;48.842;8.926;2022-07-11T09:08:57;1.80;;;1.70;;
1400;SDS011;46518;48.842;8.926;2022-07-11T09:11:27;1.47;;;1.37;;
1400;SDS011;46518;48.842;8.926;2022-07-11T09:13:55;2.33;;;1.83;;
1400;SDS011;46518;48.842;8.926;2022-07-11T09:16:23;1.67;;;1.57;;
1400;SDS011;46518;48.842;8.926;2022-07-11T09:18:59;2.03;;;1.93;;
1400;SDS011;46518;48.842;8.926;2022-07-11T09:21:28;1.57;;;1.47;;
1400;SDS011;46518;48.842;8.926;2022-07-11T09:24:13;1.47;;;1.37;;
1400;SDS011;46518;48.842;8.926;2022-07-11T09:26:59;1.65;;;1.55;;
1400;SDS011;46518;48.842;8.926;2022-07-11T09:29:27;1.60;;;1.50;;
1400;SDS011;46518;48.842;8.926;2022-07-11T09:31:55;1.48;;;1.40;;
1400;SDS011;46518;48.842;8.926;2022-07-11T09:34:25;1.30;;;1.20;;
1400;SDS011;46518;48.842;8.926;2022-07-11T09:36:55;1.53;;;1.43;;
1400;SDS011;46518;48.842;8.926;2022-07-11T09:39:24;1.57;;;1.47;;
1400;SDS011;46518;48.842;8.926;2022-07-11T09:42:20;1.67;;;1.50;;
1400;SDS011;46518;48.842;8.926;2022-07-11T09:44:48;1.60;;;1.50;;
1400;SDS011;46518;48.842;8.926;2022-07-11T09:47:17;2.40;;;1.87;;
1400;SDS011;46518;48.842;8.926;2022-07-11T09:49:46;2.07;;;1.97;;
1400;SDS011;46518;48.842;8.926;2022-07-11T09:52:15;1.87;;;1.67;;
1400;SDS011;46518;48.842;8.926;2022-07-11T09:54:54;1.77;;;1.67;;
1400;SDS011;46518;48.842;8.926;2022-07-11T09:57:30;3.10;;;1.83;;
1400;SDS011;46518;48.842;8.926;2022-07-11T09:59:59;1.40;;;1.30;;
1400;SDS011;46518;48.842;8.926;2022-07-11T10:02:30;2.20;;;2.00;;
1400;SDS011;46518;48.842;8.926;2022-07-11T10:05:00;2.23;;;2.13;;
1400;SDS011;46518;48.842;8.926;2022-07-11T10:07:29;1.83;;;1.73;;
1400;SDS011;46518;48.842;8.926;2022-07-11T10:10:00;2.40;;;1.60;;
1400;SDS011;46518;48.842;8.926;2022-07-11T10:12:30;2.50;;;2.30;;
1400;SDS011;46518;48.842;8.926;2022-07-11T10:14:59;2.33;;;2.23;;
1400;SDS011;46518;48.842;8.926;2022-07-11T10:17:30;2.03;;;1.77;;
1400;SDS011;46518;48.842;8.926;2022-07-11T10:20:13;2.13;;;2.03;;
1400;SDS011;46518;48.842;8.926;2022-07-11T10:22:50;2.40;;;2.30;;
1400;SDS011;46518;48.842;8.926;2022-07-11T10:25:26;2.70;;;2.50;;
1400;SDS011;46518;48.842;8.926;2022-07-11T10:28:10;2.97;;;2.77;;
1400;SDS011;46518;48.842;8.926;2022-07-11T10:30:50;2.40;;;2.20;;
1400;SDS011;46518;48.842;8.926;2022-07-11T10:33:22;2.23;;;2.03;;
1400;SDS011;46518;48.842;8.926;2022-07-11T10:35:54;2.43;;;2.27;;
1400;SDS011;46518;48.842;8.926;2022-07-11T10:38:24;2.17;;;2.07;;
1400;SDS011;46518;48.842;8.926;2022-07-11T10:40:53;2.50;;;2.03;;
1400;SDS011;46518;48.842;8.926;2022-07-11T10:43:32;2.97;;;2.73;;
1400;SDS011;46518;48.842;8.926;2022-07-11T10:46:04;2.47;;;2.27;;
1400;SDS011;46518;48.842;8.926;2022-07-11T10:48:34;2.90;;;2.50;;
1400;SDS011;46518;48.842;8.926;2022-07-11T10:51:26;2.20;;;2.10;;
1400;SDS011;46518;48.842;8.926;2022-07-11T10:54:24;2.50;;;2.17;;
1400;SDS011;46518;48.842;8.926;2022-07-11T10:57:14;2.57;;;2.37;;
1400;SDS011;46518;48.842;8.926;2022-07-11T10:59:57;2.57;;;2.37;;
1400;SDS011;46518;48.842;8.926;2022-07-11T11:02:27;2.07;;;1.97;;
1400;SDS011;46518;48.842;8.926;2022-07-11T11:04:56;3.23;;;2.37;;
1400;SDS011;46518;48.842;8.926;2022-07-11T11:07:34;2.43;;;2.33;;
1400;SDS011;46518;48.842;8.926;2022-07-11T11:10:05;2.27;;;2.07;;
1400;SDS011;46518;48.842;8.926;2022-07-11T11:15:42;5.27;;;2.53;;
1400;SDS011;46518;48.842;8.926;2022-07-11T11:24:04;3.77;;;2.80;;
1400;SDS011;46518;48.842;8.926;2022-07-11T11:29:26;2.70;;;2.50;;
1400;SDS011;46518;48.842;8.926;2022-07-11T11:31:57;2.30;;;2.20;;
1400;SDS011;46518;48.842;8.926;2022-07-11T11:34:27;3.40;;;2.53;;
1400;SDS011;46518;48.842;8.926;2022-07-11T11:36:57;2.40;;;2.30;;
1400;SDS011;46518;48.842;8.926;2022-07-11T11:39:31;3.70;;;3.40;;
1400;SDS011;46518;48.842;8.926;2022-07-11T11:42:01;3.37;;;3.17;;
1400;SDS011;46518;48.842;8.926;2022-07-11T11:44:47;4.03;;;3.53;;
1400;SDS011;46518;48.842;8.926;2022-07-11T11:47:17;3.53;;;2.77;;
1400;SDS011;46518;48.842;8.926;2022-07-11T11:49:46;3.57;;;2.57;;
1400;SDS011;46518;48.842;8.926;2022-07-11T11:52:16;2.47;;;2.27;;
1400;SDS011;46518;48.842;8.926;2022-07-11T11:54:51;2.50;;;2.30;;
1400;SDS011;46518;48.842;8.926;2022-07-11T11:57:21;2.53;;;2.43;;
1400;SDS011;46518;48.842;8.926;2022-07-11T11:59:51;2.40;;;2.30;;
1400;SDS011;46518;48.842;8.926;2022-07-11T12:02:23;3.03;;;2.83;;
1400;SDS011;46518;48.842;8.926;2022-07-11T12:04:53;2.97;;;2.20;;
1400;SDS011;46518;48.842;8.926;2022-07-11T12:07:25;2.87;;;2.67;;
1400;SDS011;46518;48.842;8.926;2022-07-11T12:09:57;3.20;;;2.37;;
1400;SDS011;46518;48.842;8.926;2022-07-11T12:12:30;3.10;;;2.57;;
1400;SDS011;46518;48.842;8.926;2022-07-11T12:15:31;2.23;;;2.13;;
1400;SDS011;46518;48.842;8.926;2022-07-11T12:18:21;2.63;;;2.20;;
1400;SDS011;46518;48.842;8.926;2022-07-11T12:20:51;2.57;;;2.37;;
1400;SDS011;46518;48.842;8.926;2022-07-11T12:23:20;2.97;;;2.60;;
1400;SDS011;46518;48.842;8.926;2022-07-11T12:25:50;2.70;;;2.50;;
1400;SDS011;46518;48.842;8.926;2022-07-11T12:28:20;2.50;;;2.40;;
1400;SDS011;46518;48.842;8.926;2022-07-11T12:30:53;3.67;;;3.20;;
1400;SDS011;46518;48.842;8.926;2022-07-11T12:33:23;2.50;;;2.37;;
1400;SDS011;46518;48.842;8.926;2022-07-11T12:35:52;2.77;;;2.57;;
1400;SDS011;46518;48.842;8.926;2022-07-11T12:38:22;2.87;;;2.67;;
1400;SDS011;46518;48.842;8.926;2022-07-11T12:41:00;2.70;;;2.50;;
1400;SDS011;46518;48.842;8.926;2022-07-11T12:43:42;3.80;;;2.90;;
1400;SDS011;46518;48.842;8.926;2022-07-11T12:46:29;3.10;;;2.90;;
1400;SDS011;46518;48.842;8.926;2022-07-11T12:49:00;2.33;;;2.20;;
1400;SDS011;46518;48.842;8.926;2022-07-11T12:51:29;3.00;;;2.20;;
1400;SDS011;46518;48.842;8.926;2022-07-11T12:54:02;2.70;;;2.50;;
1400;SDS011;46518;48.842;8.926;2022-07-11T12:56:33;2.40;;;2.30;;
1400;SDS011;46518;48.842;8.926;2022-07-11T12:59:02;3.17;;;2.97;;
1400;SDS011;46518;48.842;8.926;2022-07-11T13:01:45;2.77;;;2.57;;
1400;SDS011;46518;48.842;8.926;2022-07-11T13:04:29;4.30;;;2.83;;
1400;SDS011;46518;48.842;8.926;2022-07-11T13:07:09;2.90;;;2.60;;
1400;SDS011;46518;48.842;8.926;2022-07-11T13:10:03;2.63;;;2.53;;
1400;SDS011;46518;48.842;8.926;2022-07-11T13:12:34;3.17;;;2.97;;
1400;SDS011;46518;48.842;8.926;2022-07-11T13:15:04;3.87;;;3.50;;
1400;SDS011;46518;48.842;8.926;2022-07-11T13:17:40;3.33;;;3.13;;
1400;SDS011;46518;48.842;8.926;2022-07-11T13:20:11;3.60;;;3.40;;
1400;SDS011;46518;48.842;8.926;2022-07-11T13:22:41;2.90;;;2.70;;
1400;SDS011;46518;48.842;8.926;2022-07-11T13:25:10;3.00;;;2.80;;
1400;SDS011;46518;48.842;8.926;2022-07-11T13:27:40;3.00;;;2.80;;
1400;SDS011;46518;48.842;8.926;2022-07-11T13:30:09;3.53;;;3.23;;
1400;SDS011;46518;48.842;8.926;2022-07-11T13:32:42;3.17;;;2.87;;
1400;SDS011;46518;48.842;8.926;2022-07-11T13:35:12;2.93;;;2.50;;
1400;SDS011;46518;48.842;8.926;2022-07-11T13:37:42;3.60;;;3.17;;
1400;SDS011;46518;48.842;8.926;2022-07-11T13:40:14;2.70;;;2.50;;
1400;SDS011;46518;48.842;8.926;2022-07-11T13:42:44;3.50;;;3.30;;
1400;SDS011;46518;48.842;8.926;2022-07-11T13:45:16;2.83;;;2.70;;
1400;SDS011;46518;48.842;8.926;2022-07-11T13:47:45;4.23;;;3.13;;
1400;SDS011;46518;48.842;8.926;2022-07-11T13:50:15;4.07;;;3.40;;
1400;SDS011;46518;48.842;8.926;2022-07-11T13:52:44;2.73;;;2.50;;
1400;SDS011;46518;48.842;8.926;2022-07-11T13:55:15;3.77;;;3.47;;
1400;SDS011;46518;48.842;8.926;2022-07-11T13:57:45;3.00;;;2.80;;
1400;SDS011;46518;48.842;8.926;2022-07-11T14:00:17;3.30;;;3.10;;
1400;SDS011;46518;48.842;8.926;2022-07-11T14:02:46;3.23;;;3.03;;
1400;SDS011;46518;48.842;8.926;2022-07-11T14:05:14;2.50;;;2.30;;
1400;SDS011;46518;48.842;8.926;2022-07-11T14:07:45;3.33;;;2.97;;
1400;SDS011;46518;48.842;8.926;2022-07-11T14:10:14;2.97;;;2.87;;
1400;SDS011;46518;48.842;8.926;2022-07-11T14:12:43;3.40;;;3.10;;
1400;SDS011;46518;48.842;8.926;2022-07-11T14:15:12;2.93;;;2.70;;
1400;SDS011;46518;48.842;8.926;2022-07-11T14:17:40;3.60;;;3.33;;
1400;SDS011;46518;48.842;8.926;2022-07-11T14:20:12;3.53;;;3.23;;
1400;SDS011;46518;48.842;8.926;2022-07-11T14:22:57;4.40;;;3.27;;
1400;SDS011;46518;48.842;8.926;2022-07-11T14:25:25;4.00;;;3.70;;
1400;SDS011;46518;48.842;8.926;2022-07-11T14:27:55;4.07;;;3.77;;
1400;SDS011;46518;48.842;8.926;2022-07-11T14:30:24;3.43;;;3.13;;
1400;SDS011;46518;48.842;8.926;2022-07-11T14:32:53;3.80;;;3.50;;
1400;SDS011;46518;48.842;8.926;2022-07-11T14:35:22;4.70;;;3.40;;
1400;SDS011;46518;48.842;8.926;2022-07-11T14:37:51;3.00;;;2.70;;
1400;SDS011;46518;48.842;8.926;2022-07-11T14:40:20;3.10;;;2.90;;
1400;SDS011;46518;48.842;8.926;2022-07-11T14:42:56;2.90;;;2.70;;
1400;SDS011;46518;48.842;8.926;2022-07-11T14:45:24;3.00;;;2.90;;
1400;SDS011;46518;48.842;8.926;2022-07-11T14:47:52;4.40;;;4.00;;
1400;SDS011;46518;48.842;8.926;2022-07-11T14:50:21;3.00;;;2.80;;
1400;SDS011;46518;48.842;8.926;2022-07-11T14:52:49;3.30;;;3.10;;
1400;SDS011;46518;48.842;8.926;2022-07-11T14:55:20;4.30;;;4.00;;
1400;SDS011;46518;48.842;8.926;2022-07-11T14:57:48;3.03;;;2.83;;
1400;SDS011;46518;48.842;8.926;2022-07-11T15:00:18;3.50;;;3.30;;
1400;SDS011;46518;48.842;8.926;2022-07-11T15:02:48;4.10;;;3.80;;
1400;SDS011;46518;48.842;8.926;2022-07-11T15:05:33;3.40;;;3.10;;
1400;SDS011;46518;48.842;8.926;2022-07-11T15:08:02;3.07;;;2.87;;
1400;SDS011;46518;48.842;8.926;2022-07-11T15:10:48;3.33;;;3.03;;
1400;SDS011;46518;48.842;8.926;2022-07-11T15:13:33;3.77;;;3.57;;
1400;SDS011;46518;48.842;8.926;2022-07-11T15:16:04;3.70;;;2.80;;
1400;SDS011;46518;48.842;8.926;2022-07-11T15:18:33;3.60;;;3.30;;
1400;SDS011;46518;48.842;8.926;2022-07-11T15:21:01;3.27;;;2.97;;
1400;SDS011;46518;48.842;8.926;2022-07-11T15:23:29;3.57;;;3.37;;
1400;SDS011;46518;48.842;8.926;2022-07-11T15:25:58;3.20;;;3.00;;
1400;SDS011;46518;48.842;8.926;2022-07-11T15:28:26;3.20;;;3.00;;
1400;SDS011;46518;48.842;8.926;2022-07-11T15:31:00;3.57;;;3.37;;
1400;SDS011;46518;48.842;8.926;2022-07-11T15:33:30;3.50;;;3.30;;